createdAt,value
2019-03-17T00:01:30.237Z,10.60
2019-03-17T00:03:23.250Z,10.60
2019-03-17T00:05:16.464Z,10.50
2019-03-17T00:07:08.832Z,10.50
2019-03-17T00:09:02.011Z,10.50
2019-03-17T00:10:56.553Z,10.50
2019-03-17T00:12:49.877Z,10.40
2019-03-17T00:14:42.844Z,10.40
2019-03-17T00:16:36.164Z,10.40
2019-03-17T00:18:28.413Z,10.30
2019-03-17T00:20:21.584Z,10.20
2019-03-17T00:22:13.856Z,10.20
2019-03-17T00:24:06.889Z,10.10
2019-03-17T00:25:59.900Z,10.10
2019-03-17T00:27:52.970Z,10.00
2019-03-17T00:29:45.796Z,10.00
2019-03-17T00:31:39.229Z,9.90
2019-03-17T00:33:32.576Z,9.90
2019-03-17T00:35:25.558Z,9.90
2019-03-17T00:37:18.995Z,10.00
2019-03-17T00:39:11.354Z,10.00
2019-03-17T00:41:04.232Z,10.00
2019-03-17T00:42:57.520Z,10.00
2019-03-17T00:44:51.088Z,10.00
2019-03-17T00:46:43.389Z,10.00
2019-03-17T00:48:36.432Z,10.00
2019-03-17T00:50:29.416Z,9.90
2019-03-17T00:52:22.730Z,9.90
2019-03-17T00:54:14.999Z,9.80
2019-03-17T00:56:07.908Z,9.70
2019-03-17T00:58:00.153Z,9.60
2019-03-17T00:59:53.092Z,9.60
2019-03-17T01:01:45.917Z,9.60
2019-03-17T01:03:39.380Z,9.50
2019-03-17T01:05:32.053Z,9.50
2019-03-17T01:07:24.862Z,9.40
2019-03-17T01:09:17.156Z,9.40
2019-03-17T01:11:10.276Z,9.40
2019-03-17T01:13:02.515Z,9.30
2019-03-17T01:14:55.431Z,9.30
2019-03-17T01:16:48.937Z,9.30
2019-03-17T01:18:41.878Z,9.30
2019-03-17T01:20:34.248Z,9.30
2019-03-17T01:22:26.941Z,9.30
2019-03-17T01:24:20.312Z,9.20
2019-03-17T01:26:13.272Z,9.30
2019-03-17T01:28:06.182Z,9.20
2019-03-17T01:29:59.273Z,9.20
2019-03-17T01:31:52.492Z,9.20
2019-03-17T01:33:44.800Z,9.20
2019-03-17T01:35:38.119Z,9.10
2019-03-17T01:37:30.363Z,9.10
2019-03-17T01:39:23.324Z,9.10
2019-03-17T01:41:16.542Z,9.10
2019-03-17T01:43:08.930Z,9.10
2019-03-17T01:45:02.230Z,9.10
2019-03-17T01:46:54.597Z,9.10
2019-03-17T01:48:47.540Z,9.00
2019-03-17T01:50:40.756Z,9.10
2019-03-17T01:52:34.258Z,9.00
2019-03-17T01:54:27.090Z,9.00
2019-03-17T01:56:19.269Z,8.90
2019-03-17T01:58:12.000Z,8.90
2019-03-17T02:00:08.616Z,8.90
2019-03-17T02:02:02.001Z,8.80
2019-03-17T02:03:54.284Z,8.80
2019-03-17T02:05:47.311Z,8.80
2019-03-17T02:07:40.650Z,8.80
2019-03-17T02:09:32.916Z,8.80
2019-03-17T02:11:25.572Z,8.70
2019-03-17T02:13:18.820Z,8.70
2019-03-17T02:15:11.789Z,8.70
2019-03-17T02:17:04.956Z,8.80
2019-03-17T02:18:57.736Z,8.70
2019-03-17T02:20:50.768Z,8.60
2019-03-17T02:22:44.054Z,8.60
2019-03-17T02:24:36.951Z,8.50
2019-03-17T02:26:29.953Z,8.50
2019-03-17T02:28:22.821Z,8.50
2019-03-17T02:30:15.736Z,8.40
2019-03-17T02:32:09.734Z,8.40
2019-03-17T02:34:03.616Z,8.40
2019-03-17T02:35:56.660Z,8.40
2019-03-17T02:37:49.474Z,8.30
2019-03-17T02:39:42.274Z,8.30
2019-03-17T02:41:34.629Z,8.20
2019-03-17T02:43:27.649Z,8.10
2019-03-17T02:45:20.923Z,8.10
2019-03-17T02:47:14.633Z,8.20
2019-03-17T02:49:07.720Z,8.10
2019-03-17T02:51:00.592Z,8.20
2019-03-17T02:52:53.888Z,8.10
2019-03-17T02:54:47.128Z,8.20
2019-03-17T02:56:39.451Z,8.10
2019-03-17T02:58:32.148Z,8.10
2019-03-17T03:00:24.867Z,8.00
2019-03-17T03:02:17.552Z,8.00
2019-03-17T03:04:10.872Z,8.00
2019-03-17T03:06:04.478Z,8.00
2019-03-17T03:07:57.661Z,8.10
2019-03-17T03:09:49.905Z,8.20
2019-03-17T03:11:43.137Z,8.20
2019-03-17T03:13:35.995Z,8.20
2019-03-17T03:15:28.270Z,8.10
2019-03-17T03:17:21.653Z,8.10
2019-03-17T03:19:14.432Z,8.10
2019-03-17T03:21:07.445Z,8.10
2019-03-17T03:23:00.448Z,8.00
2019-03-17T03:24:53.627Z,8.00
2019-03-17T03:26:46.563Z,7.90
2019-03-17T03:28:39.464Z,7.90
2019-03-17T03:30:31.710Z,7.80
2019-03-17T03:32:24.904Z,7.80
2019-03-17T03:34:17.869Z,7.80
2019-03-17T03:36:11.904Z,7.70
2019-03-17T03:38:05.185Z,7.80
2019-03-17T03:39:57.531Z,7.70
2019-03-17T03:41:50.477Z,7.60
2019-03-17T03:43:42.867Z,7.60
2019-03-17T03:45:35.916Z,7.60
2019-03-17T03:47:29.296Z,7.50
2019-03-17T03:49:22.289Z,7.50
2019-03-17T03:51:15.254Z,7.40
2019-03-17T03:53:08.012Z,7.40
2019-03-17T03:55:01.052Z,7.40
2019-03-17T03:56:53.374Z,7.40
2019-03-17T03:58:47.129Z,7.40
2019-03-17T04:00:40.396Z,7.30
2019-03-17T04:02:34.025Z,7.30
2019-03-17T04:04:27.462Z,7.30
2019-03-17T04:06:26.758Z,7.30
2019-03-17T04:08:18.096Z,7.30
2019-03-17T04:10:11.670Z,7.30
2019-03-17T04:12:05.679Z,7.20
2019-03-17T04:13:59.176Z,7.20
2019-03-17T04:15:52.433Z,7.30
2019-03-17T04:17:45.730Z,7.20
2019-03-17T04:19:38.486Z,7.20
2019-03-17T04:21:31.382Z,7.20
2019-03-17T04:23:23.771Z,7.30
2019-03-17T04:25:17.722Z,7.30
2019-03-17T04:27:11.030Z,7.30
2019-03-17T04:29:03.386Z,7.30
2019-03-17T04:30:56.471Z,7.30
2019-03-17T04:32:49.411Z,7.30
2019-03-17T04:34:42.534Z,7.30
2019-03-17T04:36:40.358Z,7.30
2019-03-17T04:38:29.800Z,7.30
2019-03-17T04:40:22.766Z,7.20
2019-03-17T04:42:15.079Z,7.00
2019-03-17T04:44:20.258Z,6.90
2019-03-17T04:46:04.352Z,6.90
2019-03-17T04:47:56.563Z,6.90
2019-03-17T04:49:49.236Z,7.00
2019-03-17T04:51:42.561Z,7.10
2019-03-17T04:53:35.552Z,7.10
2019-03-17T04:55:28.284Z,7.10
2019-03-17T04:57:21.492Z,7.10
2019-03-17T04:59:14.110Z,7.10
2019-03-17T05:01:06.882Z,7.00
2019-03-17T05:02:59.622Z,7.00
2019-03-17T05:04:52.436Z,7.00
2019-03-17T05:06:52.519Z,7.10
2019-03-17T05:08:40.544Z,7.20
2019-03-17T05:10:32.835Z,7.30
2019-03-17T05:12:25.668Z,7.30
2019-03-17T05:14:18.738Z,7.40
2019-03-17T05:16:11.015Z,7.50
2019-03-17T05:18:04.260Z,7.50
2019-03-17T05:19:57.592Z,7.60
2019-03-17T05:21:52.149Z,7.60
2019-03-17T05:23:45.357Z,7.60
2019-03-17T05:25:38.108Z,7.70
2019-03-17T05:27:32.021Z,7.70
2019-03-17T05:29:25.362Z,7.70
2019-03-17T05:31:18.808Z,7.70
2019-03-17T05:33:11.259Z,7.60
2019-03-17T05:35:06.113Z,7.70
2019-03-17T05:37:06.002Z,7.80
2019-03-17T05:38:54.430Z,7.80
2019-03-17T05:40:47.412Z,7.80
2019-03-17T05:42:40.835Z,7.80
2019-03-17T05:44:35.508Z,7.90
2019-03-17T05:46:27.777Z,7.90
2019-03-17T05:48:20.955Z,8.00
2019-03-17T05:50:13.713Z,8.10
2019-03-17T05:52:06.660Z,8.20
2019-03-17T05:53:58.953Z,8.30
2019-03-17T05:55:52.024Z,8.30
2019-03-17T05:57:44.193Z,8.30
2019-03-17T05:59:37.153Z,8.30
2019-03-17T06:01:30.107Z,8.00
2019-03-17T06:03:22.990Z,8.10
2019-03-17T06:05:16.521Z,8.10
2019-03-17T06:07:18.663Z,8.20
2019-03-17T06:09:06.148Z,8.30
2019-03-17T06:10:58.852Z,8.30
2019-03-17T06:12:53.096Z,8.50
2019-03-17T06:14:46.261Z,8.60
2019-03-17T06:16:38.490Z,8.70
2019-03-17T06:18:31.507Z,8.90
2019-03-17T06:20:24.687Z,9.00
2019-03-17T06:22:17.890Z,9.10
2019-03-17T06:24:10.709Z,9.40
2019-03-17T06:26:03.889Z,9.70
2019-03-17T06:27:56.537Z,10.00
2019-03-17T06:29:49.572Z,10.20
2019-03-17T06:31:42.543Z,10.30
2019-03-17T06:33:35.532Z,10.40
2019-03-17T06:35:28.556Z,10.50
2019-03-17T06:37:30.630Z,10.60
2019-03-17T06:39:15.636Z,10.70
2019-03-17T06:41:09.183Z,10.70
2019-03-17T06:43:02.600Z,10.60
2019-03-17T06:44:55.345Z,10.50
2019-03-17T06:46:47.690Z,10.40
2019-03-17T06:48:40.653Z,10.40
2019-03-17T06:50:33.359Z,10.60
2019-03-17T06:52:27.391Z,10.60
2019-03-17T06:54:19.732Z,10.60
2019-03-17T06:56:12.852Z,10.60
2019-03-17T06:58:05.108Z,10.60
2019-03-17T06:59:57.968Z,10.50
2019-03-17T07:01:50.910Z,10.50
2019-03-17T07:03:44.363Z,10.40
2019-03-17T07:05:37.160Z,10.50
2019-03-17T07:07:42.906Z,10.50
2019-03-17T07:09:25.019Z,10.50
2019-03-17T07:11:17.988Z,10.50
2019-03-17T07:13:10.970Z,10.60
2019-03-17T07:15:04.383Z,10.60
2019-03-17T07:16:57.022Z,10.60
2019-03-17T07:18:50.886Z,10.70
2019-03-17T07:20:43.956Z,10.80
2019-03-17T07:22:36.653Z,10.90
2019-03-17T07:24:29.372Z,10.90
2019-03-17T07:26:22.085Z,10.90
2019-03-17T07:28:14.850Z,10.90
2019-03-17T07:30:11.005Z,10.90
2019-03-17T07:32:04.509Z,11.00
2019-03-17T07:33:58.007Z,11.00
2019-03-17T07:35:51.228Z,11.10
2019-03-17T07:37:55.871Z,11.10
2019-03-17T07:39:39.042Z,11.10
2019-03-17T07:41:31.336Z,11.10
2019-03-17T07:43:24.070Z,11.20
2019-03-17T07:45:16.384Z,11.20
2019-03-17T07:47:09.308Z,11.40
2019-03-17T07:49:01.590Z,11.60
2019-03-17T07:50:54.586Z,11.70
2019-03-17T07:52:47.924Z,11.80
2019-03-17T07:54:40.131Z,11.90
2019-03-17T07:56:33.088Z,12.10
2019-03-17T07:58:26.240Z,12.20
2019-03-17T08:00:30.967Z,12.30
2019-03-17T08:02:13.902Z,12.40
2019-03-17T08:04:07.218Z,12.70
2019-03-17T08:05:59.537Z,12.80
2019-03-17T08:07:52.323Z,12.80
2019-03-17T08:09:46.827Z,13.00
2019-03-17T08:11:40.091Z,13.10
2019-03-17T08:13:32.463Z,13.20
2019-03-17T08:15:25.221Z,13.40
2019-03-17T08:17:19.565Z,13.60
2019-03-17T08:19:12.601Z,13.70
2019-03-17T08:21:07.709Z,13.80
2019-03-17T08:23:00.955Z,14.10
2019-03-17T08:24:53.669Z,14.20
2019-03-17T08:26:46.477Z,14.40
2019-03-17T08:28:39.603Z,14.60
2019-03-17T08:30:35.511Z,14.80
2019-03-17T08:32:28.683Z,15.10
2019-03-17T08:34:21.995Z,15.10
2019-03-17T08:36:15.484Z,15.30
2019-03-17T08:38:17.270Z,15.30
2019-03-17T08:40:05.383Z,15.30
2019-03-17T08:41:58.542Z,15.40
2019-03-17T08:43:54.417Z,15.60
2019-03-17T08:45:46.697Z,15.60
2019-03-17T08:47:42.724Z,15.70
2019-03-17T08:49:36.003Z,15.80
2019-03-17T08:51:29.063Z,15.80
2019-03-17T08:53:22.694Z,15.70
2019-03-17T08:55:16.134Z,15.70
2019-03-17T08:57:08.386Z,16.00
2019-03-17T08:59:01.192Z,16.10
2019-03-17T09:00:54.303Z,16.30
2019-03-17T09:02:47.633Z,16.40
2019-03-17T09:04:40.464Z,16.70
2019-03-17T09:06:32.751Z,16.70
2019-03-17T09:08:34.478Z,16.70
2019-03-17T09:10:19.912Z,16.70
2019-03-17T09:12:13.151Z,16.80
2019-03-17T09:14:06.424Z,16.90
2019-03-17T09:15:58.814Z,16.90
2019-03-17T09:17:51.700Z,17.00
2019-03-17T09:19:44.587Z,17.10
2019-03-17T09:21:37.929Z,17.20
2019-03-17T09:23:30.581Z,17.30
2019-03-17T09:25:07.042Z,17.20
2019-03-17T09:26:41.768Z,17.40
2019-03-17T09:28:16.373Z,17.40
2019-03-17T09:29:50.832Z,17.40
2019-03-17T09:31:25.761Z,17.30
2019-03-17T09:33:00.287Z,17.40
2019-03-17T09:34:34.780Z,17.50
2019-03-17T09:36:09.891Z,17.40
2019-03-17T09:37:44.571Z,17.40
2019-03-17T09:39:19.064Z,17.70
2019-03-17T09:40:53.795Z,17.90
2019-03-17T09:42:28.306Z,18.00
2019-03-17T09:44:02.757Z,18.20
2019-03-17T09:45:56.040Z,18.10
2019-03-17T09:47:30.558Z,18.10
2019-03-17T09:49:05.490Z,18.20
2019-03-17T09:50:40.028Z,18.00
2019-03-17T09:52:14.942Z,18.00
2019-03-17T09:53:49.373Z,18.10
2019-03-17T09:55:24.229Z,18.20
2019-03-17T09:56:59.070Z,18.20
2019-03-17T09:58:33.571Z,18.10
2019-03-17T10:00:21.673Z,18.30
2019-03-17T10:01:56.188Z,18.40
2019-03-17T10:03:30.870Z,18.50
2019-03-17T10:05:06.673Z,18.10
2019-03-17T10:06:43.833Z,18.00
2019-03-17T10:08:18.320Z,18.00
2019-03-17T10:09:52.776Z,17.90
2019-03-17T10:11:27.287Z,18.10
2019-03-17T10:13:01.741Z,18.10
2019-03-17T10:14:36.416Z,18.20
2019-03-17T10:16:10.993Z,18.30
2019-03-17T10:17:45.954Z,18.70
2019-03-17T10:19:20.453Z,18.70
2019-03-17T10:20:54.991Z,19.00
2019-03-17T10:22:29.983Z,19.10
2019-03-17T10:24:04.584Z,19.00
2019-03-17T10:25:56.847Z,19.40
2019-03-17T10:27:49.710Z,18.90
2019-03-17T10:29:43.371Z,18.60
2019-03-17T10:31:36.570Z,19.00
2019-03-17T10:33:29.582Z,19.20
2019-03-17T10:35:22.667Z,19.00
2019-03-17T10:37:15.871Z,19.00
2019-03-17T10:39:12.608Z,18.80
2019-03-17T10:41:04.172Z,19.00
2019-03-17T10:42:58.353Z,18.90
2019-03-17T10:44:51.694Z,19.00
2019-03-17T10:46:44.976Z,19.20
2019-03-17T10:48:38.040Z,18.80
2019-03-17T10:50:31.170Z,18.60
2019-03-17T10:52:24.751Z,18.60
2019-03-17T10:54:17.497Z,18.60
2019-03-17T10:56:10.615Z,19.00
2019-03-17T10:58:04.067Z,19.50
2019-03-17T10:59:56.920Z,19.60
2019-03-17T11:01:49.868Z,19.30
2019-03-17T11:03:42.624Z,19.40
2019-03-17T11:05:35.703Z,19.40
2019-03-17T11:07:28.736Z,19.10
2019-03-17T11:09:04.414Z,19.20
2019-03-17T11:10:39.059Z,19.20
2019-03-17T11:12:13.544Z,19.40
2019-03-17T11:13:48.076Z,19.00
2019-03-17T11:15:41.363Z,18.80
2019-03-17T11:17:34.492Z,19.00
2019-03-17T11:19:28.275Z,19.00
2019-03-17T11:21:21.142Z,19.20
2019-03-17T11:23:14.484Z,19.40
2019-03-17T11:25:11.136Z,19.20
2019-03-17T11:27:04.464Z,19.30
2019-03-17T11:28:57.964Z,19.20
2019-03-17T11:30:58.613Z,18.80
2019-03-17T11:32:51.826Z,18.70
2019-03-17T11:34:44.044Z,18.80
2019-03-17T11:36:37.661Z,19.00
2019-03-17T11:38:31.063Z,19.20
2019-03-17T11:40:24.409Z,19.20
2019-03-17T11:42:17.441Z,19.00
2019-03-17T11:44:10.964Z,18.80
2019-03-17T11:46:04.372Z,18.90
2019-03-17T11:47:57.421Z,18.80
2019-03-17T11:49:50.727Z,19.00
2019-03-17T11:51:43.841Z,19.10
2019-03-17T11:53:37.056Z,19.00
2019-03-17T11:55:31.863Z,19.00
2019-03-17T11:57:25.635Z,19.00
2019-03-17T11:59:19.039Z,19.10
2019-03-17T12:01:11.910Z,19.20
2019-03-17T12:03:04.685Z,19.30
2019-03-17T12:04:57.984Z,19.00
2019-03-17T12:06:50.843Z,19.00
2019-03-17T12:08:44.356Z,19.00
2019-03-17T12:10:37.811Z,19.10
2019-03-17T12:12:31.178Z,18.70
2019-03-17T12:14:24.605Z,18.70
2019-03-17T12:16:17.869Z,19.10
2019-03-17T12:18:11.132Z,19.30
2019-03-17T12:20:06.898Z,19.30
2019-03-17T12:22:08.846Z,19.00
2019-03-17T12:23:55.217Z,19.00
2019-03-17T12:25:48.151Z,19.40
2019-03-17T12:27:41.671Z,19.50
2019-03-17T12:29:34.140Z,19.40
2019-03-17T12:31:27.164Z,20.20
2019-03-17T12:33:20.508Z,20.80
2019-03-17T12:35:14.145Z,20.70
2019-03-17T12:37:07.936Z,20.70
2019-03-17T12:39:01.042Z,21.00
2019-03-17T12:40:53.465Z,21.20
2019-03-17T12:42:46.645Z,20.90
2019-03-17T12:44:39.806Z,21.20
2019-03-17T12:46:33.217Z,22.00
2019-03-17T12:48:26.015Z,22.30
2019-03-17T12:50:21.746Z,22.30
2019-03-17T12:52:14.988Z,21.40
2019-03-17T12:54:07.206Z,21.80
2019-03-17T12:55:59.967Z,21.80
2019-03-17T12:57:54.579Z,22.30
2019-03-17T12:59:47.879Z,21.90
2019-03-17T13:01:40.839Z,22.10
2019-03-17T13:03:34.049Z,22.70
2019-03-17T13:05:27.438Z,22.30
2019-03-17T13:07:20.518Z,22.20
2019-03-17T13:09:15.029Z,22.50
2019-03-17T13:11:08.167Z,23.00
2019-03-17T13:13:00.553Z,24.00
2019-03-17T13:14:53.849Z,23.70
2019-03-17T13:16:47.003Z,24.30
2019-03-17T13:18:40.221Z,23.20
2019-03-17T13:20:47.256Z,22.80
2019-03-17T13:22:40.440Z,22.30
2019-03-17T13:24:33.447Z,22.20
2019-03-17T13:26:26.166Z,22.80
2019-03-17T13:28:19.468Z,22.40
2019-03-17T13:30:16.964Z,22.10
2019-03-17T13:32:10.317Z,22.20
2019-03-17T13:34:03.461Z,22.00
2019-03-17T13:35:56.351Z,21.50
2019-03-17T13:37:48.629Z,21.70
2019-03-17T13:39:41.615Z,21.30
2019-03-17T13:41:35.085Z,20.70
2019-03-17T13:43:28.291Z,20.80
2019-03-17T13:45:20.693Z,21.00
2019-03-17T13:47:13.629Z,21.30
2019-03-17T13:49:06.951Z,21.40
2019-03-17T13:51:00.146Z,21.30
2019-03-17T13:52:53.285Z,21.20
2019-03-17T13:54:45.985Z,21.00
2019-03-17T13:56:38.672Z,20.70
2019-03-17T13:58:31.476Z,20.20
2019-03-17T14:00:25.003Z,20.30
2019-03-17T14:02:18.467Z,20.40
2019-03-17T14:04:11.860Z,20.40
2019-03-17T14:06:05.129Z,21.00
2019-03-17T14:07:58.101Z,21.30
2019-03-17T14:09:50.424Z,20.50
2019-03-17T14:11:43.176Z,20.40
2019-03-17T14:13:36.432Z,20.50
2019-03-17T14:15:28.857Z,20.00
2019-03-17T14:17:22.131Z,20.30
2019-03-17T14:19:15.492Z,20.20
2019-03-17T14:21:08.761Z,20.00
2019-03-17T14:23:01.121Z,20.20
2019-03-17T14:24:54.174Z,20.00
2019-03-17T14:26:46.483Z,20.00
2019-03-17T14:28:39.765Z,19.50
2019-03-17T14:30:31.998Z,19.30
2019-03-17T14:32:26.179Z,19.30
2019-03-17T14:34:19.637Z,19.50
2019-03-17T14:36:12.523Z,19.50
2019-03-17T14:38:04.935Z,19.50
2019-03-17T14:39:58.153Z,19.80
2019-03-17T14:41:51.745Z,20.00
2019-03-17T14:43:47.913Z,20.70
2019-03-17T14:45:41.226Z,21.40
2019-03-17T14:47:33.588Z,20.60
2019-03-17T14:49:26.717Z,20.50
2019-03-17T14:51:19.884Z,20.10
2019-03-17T14:53:12.699Z,20.80
2019-03-17T14:55:07.302Z,21.60
2019-03-17T14:57:00.221Z,21.30
2019-03-17T14:58:53.204Z,21.10
2019-03-17T15:00:46.572Z,20.50
2019-03-17T15:02:39.013Z,20.30
2019-03-17T15:04:32.136Z,20.10
2019-03-17T15:06:25.525Z,20.00
2019-03-17T15:08:17.839Z,19.50
2019-03-17T15:10:13.954Z,19.70
2019-03-17T15:12:07.144Z,19.30
2019-03-17T15:14:01.204Z,19.60
2019-03-17T15:16:02.717Z,19.10
2019-03-17T15:17:49.744Z,18.90
2019-03-17T15:19:43.002Z,18.40
2019-03-17T15:21:36.094Z,18.40
2019-03-17T15:23:29.414Z,18.70
2019-03-17T15:25:21.880Z,18.40
2019-03-17T15:27:15.195Z,18.40
2019-03-17T15:29:07.580Z,18.80
2019-03-17T15:31:11.088Z,18.90
2019-03-17T15:32:55.200Z,18.40
2019-03-17T15:34:48.303Z,18.50
2019-03-17T15:36:41.373Z,18.80
2019-03-17T15:38:34.888Z,18.40
2019-03-17T15:40:28.310Z,17.90
2019-03-17T15:42:20.655Z,17.60
2019-03-17T15:44:13.621Z,17.10
2019-03-17T15:46:07.119Z,16.90
2019-03-17T15:48:00.396Z,16.70
2019-03-17T15:49:53.395Z,16.80
2019-03-17T15:51:49.198Z,16.60
2019-03-17T15:53:43.772Z,16.50
2019-03-17T15:55:37.632Z,16.60
2019-03-17T15:57:30.052Z,16.50
2019-03-17T15:59:23.324Z,16.60
2019-03-17T16:01:16.311Z,16.60
2019-03-17T16:03:09.428Z,16.50
2019-03-17T16:05:01.790Z,16.60
2019-03-17T16:06:54.843Z,16.40
2019-03-17T16:08:48.267Z,16.50
2019-03-17T16:10:40.953Z,16.30
2019-03-17T16:12:34.116Z,16.20
2019-03-17T16:14:27.453Z,16.00
2019-03-17T16:16:20.870Z,15.90
2019-03-17T16:18:14.287Z,15.80
2019-03-17T16:20:23.555Z,15.80
2019-03-17T16:22:16.642Z,15.70
2019-03-17T16:24:09.715Z,15.70
2019-03-17T16:26:02.748Z,15.80
2019-03-17T16:27:57.017Z,15.60
2019-03-17T16:29:50.392Z,15.50
2019-03-17T16:31:42.801Z,15.50
2019-03-17T16:33:38.196Z,15.50
2019-03-17T16:35:32.934Z,15.40
2019-03-17T16:37:26.192Z,15.30
2019-03-17T16:39:18.601Z,15.10
2019-03-17T16:41:12.352Z,15.00
2019-03-17T16:43:06.431Z,15.00
2019-03-17T16:44:59.440Z,15.00
2019-03-17T16:46:52.839Z,14.90
2019-03-17T16:48:45.635Z,14.90
2019-03-17T16:50:38.687Z,14.70
2019-03-17T16:52:31.252Z,14.60
2019-03-17T16:54:24.353Z,14.40
2019-03-17T16:56:17.070Z,14.00
2019-03-17T16:58:10.383Z,13.70
2019-03-17T17:00:18.721Z,13.30
2019-03-17T17:02:10.721Z,13.10
2019-03-17T17:04:03.707Z,13.00
2019-03-17T17:05:56.735Z,12.80
2019-03-17T17:07:49.863Z,12.60
2019-03-17T17:09:42.962Z,12.10
2019-03-17T17:11:36.379Z,11.50
2019-03-17T17:13:28.835Z,10.70
2019-03-17T17:15:29.601Z,10.40
2019-03-17T17:17:22.716Z,10.30
2019-03-17T17:19:15.482Z,10.20
2019-03-17T17:21:09.015Z,9.90
2019-03-17T17:23:02.521Z,9.70
2019-03-17T17:24:55.752Z,9.40
2019-03-17T17:26:48.903Z,9.20
2019-03-17T17:28:42.137Z,9.00
2019-03-17T17:30:35.097Z,9.00
2019-03-17T17:32:27.423Z,8.60
2019-03-17T17:34:20.543Z,8.60
2019-03-17T17:36:12.794Z,8.70
2019-03-17T17:38:06.153Z,8.40
2019-03-17T17:39:59.265Z,8.30
2019-03-17T17:41:52.542Z,8.10
2019-03-17T17:43:46.982Z,8.10
2019-03-17T17:45:40.222Z,8.00
2019-03-17T17:47:33.742Z,8.00
2019-03-17T17:49:26.851Z,7.80
2019-03-17T17:51:19.870Z,7.70
2019-03-17T17:53:12.928Z,7.60
2019-03-17T17:55:07.384Z,7.40
2019-03-17T17:57:00.372Z,7.40
2019-03-17T17:58:53.230Z,7.40
2019-03-17T18:00:47.243Z,7.20
2019-03-17T18:02:40.748Z,6.90
2019-03-17T18:04:34.271Z,6.90
2019-03-17T18:06:27.604Z,6.80
2019-03-17T18:08:21.158Z,6.50
2019-03-17T18:10:18.855Z,6.50
2019-03-17T18:12:20.922Z,6.60
2019-03-17T18:14:08.567Z,6.60
2019-03-17T18:16:02.841Z,6.50
2019-03-17T18:17:57.428Z,6.30
2019-03-17T18:19:51.551Z,6.20
2019-03-17T18:21:47.928Z,6.30
2019-03-17T18:23:42.540Z,6.20
2019-03-17T18:25:37.486Z,6.20
2019-03-17T18:27:32.641Z,6.20
2019-03-17T18:29:27.995Z,6.00
2019-03-17T18:31:22.843Z,6.00
2019-03-17T18:32:58.699Z,5.80
2019-03-17T18:34:35.178Z,5.60
2019-03-17T18:36:11.265Z,5.70
2019-03-17T18:37:50.741Z,5.70
2019-03-17T18:39:26.746Z,5.80
2019-03-17T18:41:03.194Z,5.80
2019-03-17T18:42:39.789Z,5.80
2019-03-17T18:44:16.556Z,5.70
2019-03-17T18:45:53.391Z,5.60
2019-03-17T18:47:29.550Z,5.30
2019-03-17T18:49:06.970Z,5.30
2019-03-17T18:50:42.903Z,5.30
2019-03-17T18:52:18.981Z,5.30
2019-03-17T18:53:55.123Z,5.20
2019-03-17T18:55:31.447Z,5.20
2019-03-17T18:57:07.442Z,5.30
2019-03-17T18:58:43.336Z,5.20
2019-03-17T19:00:20.760Z,5.00
2019-03-17T19:01:56.839Z,5.00
2019-03-17T19:03:32.908Z,5.10
2019-03-17T19:05:11.279Z,4.90
2019-03-17T19:06:47.118Z,5.00
2019-03-17T19:08:23.027Z,5.00
2019-03-17T19:10:00.805Z,4.90
2019-03-17T19:11:37.989Z,4.80
2019-03-17T19:13:14.286Z,4.80
2019-03-17T19:14:51.157Z,4.80
2019-03-17T19:16:46.204Z,4.70
2019-03-17T19:18:40.927Z,4.80
2019-03-17T19:20:35.803Z,4.80
2019-03-17T19:22:30.682Z,4.90
2019-03-17T19:24:25.584Z,5.00
2019-03-17T19:26:20.186Z,4.90
2019-03-17T19:28:15.207Z,4.90
2019-03-17T19:30:18.662Z,4.90
2019-03-17T19:32:13.524Z,4.90
2019-03-17T19:34:09.694Z,4.90
2019-03-17T19:36:04.252Z,5.00
2019-03-17T19:37:59.303Z,4.90
2019-03-17T19:39:53.652Z,4.90
2019-03-17T19:41:48.219Z,4.90
2019-03-17T19:43:42.930Z,4.90
2019-03-17T19:45:37.504Z,4.90
2019-03-17T19:47:32.832Z,4.80
2019-03-17T19:49:27.217Z,4.80
2019-03-17T19:51:22.132Z,4.80
2019-03-17T19:53:16.802Z,4.70
2019-03-17T19:55:12.598Z,4.80
2019-03-17T19:57:07.086Z,4.80
2019-03-17T19:59:01.861Z,4.80
2019-03-17T20:00:56.741Z,4.70
2019-03-17T20:02:51.203Z,4.80
2019-03-17T20:04:46.237Z,4.90
2019-03-17T20:06:41.621Z,5.00
2019-03-17T20:08:36.282Z,5.00
2019-03-17T20:10:33.618Z,4.80
2019-03-17T20:12:28.224Z,4.70
2019-03-17T20:14:23.066Z,4.80
2019-03-17T20:16:17.673Z,4.90
2019-03-17T20:18:12.202Z,4.90
2019-03-17T20:20:09.903Z,4.90
2019-03-17T20:22:04.241Z,4.90
2019-03-17T20:23:59.278Z,4.90
2019-03-17T20:25:53.990Z,4.90
2019-03-17T20:27:48.723Z,4.90
2019-03-17T20:29:43.688Z,4.80
2019-03-17T20:31:38.272Z,4.90
2019-03-17T20:33:32.840Z,4.80
2019-03-17T20:35:27.570Z,4.80
2019-03-17T20:37:22.422Z,4.80
2019-03-17T20:39:17.014Z,4.80
2019-03-17T20:41:11.864Z,4.90
2019-03-17T20:43:18.664Z,4.90
2019-03-17T20:45:02.263Z,4.70
2019-03-17T20:46:58.133Z,4.70
2019-03-17T20:48:52.728Z,4.70
2019-03-17T20:50:47.628Z,4.80
2019-03-17T20:52:42.424Z,4.80
2019-03-17T20:54:36.989Z,4.80
2019-03-17T20:56:32.168Z,4.80
2019-03-17T20:58:27.360Z,4.80
2019-03-17T21:00:21.700Z,4.80
2019-03-17T21:02:16.393Z,4.80
2019-03-17T21:04:11.376Z,4.80
2019-03-17T21:06:06.595Z,4.80
2019-03-17T21:08:01.062Z,4.80
2019-03-17T21:09:55.619Z,4.80
2019-03-17T21:11:50.278Z,4.80
2019-03-17T21:13:47.095Z,4.90
2019-03-17T21:15:40.708Z,4.90
2019-03-17T21:17:34.972Z,4.70
2019-03-17T21:19:29.524Z,4.70
2019-03-17T21:21:23.778Z,4.70
2019-03-17T21:23:19.814Z,4.60
2019-03-17T21:25:14.318Z,4.50
2019-03-17T21:27:08.941Z,4.50
2019-03-17T21:29:05.008Z,4.60
2019-03-17T21:30:59.413Z,4.60
2019-03-17T21:32:36.895Z,4.50
2019-03-17T21:34:31.654Z,4.50
2019-03-17T21:36:26.265Z,4.50
2019-03-17T21:38:20.438Z,4.50
2019-03-17T21:40:14.584Z,4.50
2019-03-17T21:42:08.061Z,4.40
2019-03-17T21:44:02.950Z,4.50
2019-03-17T21:45:55.939Z,4.50
2019-03-17T21:47:49.085Z,4.40
2019-03-17T21:49:41.426Z,4.40
2019-03-17T21:51:34.423Z,4.30
2019-03-17T21:53:27.690Z,4.40
2019-03-17T21:55:21.143Z,4.40
2019-03-17T21:57:14.593Z,4.30
2019-03-17T21:59:07.355Z,4.40
2019-03-17T22:00:59.607Z,4.40
2019-03-17T22:02:54.719Z,4.40
2019-03-17T22:04:46.883Z,4.30
2019-03-17T22:06:40.351Z,4.40
2019-03-17T22:08:33.144Z,4.40
2019-03-17T22:10:26.513Z,4.40
2019-03-17T22:12:19.304Z,4.50
2019-03-17T22:14:12.458Z,4.30
2019-03-17T22:16:06.796Z,4.30
2019-03-17T22:17:59.641Z,4.40
2019-03-17T22:19:52.924Z,4.40
2019-03-17T22:21:45.168Z,4.30
2019-03-17T22:23:38.397Z,4.20
2019-03-17T22:25:31.767Z,4.20
2019-03-17T22:27:26.109Z,4.20
2019-03-17T22:29:19.281Z,4.20
2019-03-17T22:31:12.052Z,4.30
2019-03-17T22:33:04.865Z,4.30
2019-03-17T22:34:57.981Z,4.30
2019-03-17T22:36:50.528Z,4.30
2019-03-17T22:38:43.489Z,4.20
2019-03-17T22:40:36.722Z,3.90
2019-03-17T22:42:29.755Z,4.00
2019-03-17T22:44:24.696Z,4.00
2019-03-17T22:46:17.367Z,4.00
2019-03-17T22:48:10.310Z,3.90
2019-03-17T22:50:04.439Z,3.90
2019-03-17T22:51:57.456Z,3.90
2019-03-17T22:53:50.422Z,3.90
2019-03-17T22:55:43.694Z,3.90
2019-03-17T22:57:37.032Z,3.90
2019-03-17T22:59:30.335Z,3.90
2019-03-17T23:01:23.765Z,4.00
2019-03-17T23:03:16.448Z,4.00
2019-03-17T23:05:09.336Z,4.00
2019-03-17T23:07:02.512Z,4.00
2019-03-17T23:08:55.486Z,4.00
2019-03-17T23:10:47.727Z,4.00
2019-03-17T23:12:40.799Z,4.10
2019-03-17T23:14:36.948Z,4.10
2019-03-17T23:16:28.555Z,4.10
2019-03-17T23:18:21.467Z,3.90
2019-03-17T23:20:16.296Z,3.90
2019-03-17T23:22:09.300Z,3.80
2019-03-17T23:24:01.579Z,3.80
2019-03-17T23:25:54.344Z,3.80
2019-03-17T23:27:48.940Z,3.80
2019-03-17T23:29:42.292Z,3.80
2019-03-17T23:31:35.613Z,3.90
2019-03-17T23:33:28.860Z,3.90
2019-03-17T23:35:22.073Z,3.90
2019-03-17T23:37:14.397Z,3.80
2019-03-17T23:39:07.479Z,3.80
2019-03-17T23:40:59.639Z,3.80
2019-03-17T23:42:53.296Z,3.90
2019-03-17T23:44:49.284Z,3.90
2019-03-17T23:46:42.691Z,3.70
2019-03-17T23:48:36.087Z,3.80
2019-03-17T23:50:29.392Z,3.90
2019-03-17T23:52:22.159Z,3.80
2019-03-17T23:54:15.509Z,3.80
2019-03-17T23:56:08.741Z,3.80
2019-03-17T23:58:01.109Z,3.90
2019-03-17T23:59:53.910Z,3.90
